createdAt,value
2018-06-04T00:01:06.557Z,30.40
2018-06-04T00:03:37.831Z,35.13
2018-06-04T00:06:06.770Z,37.77
2018-06-04T00:08:37.174Z,30.40
2018-06-04T00:11:07.271Z,36.13
2018-06-04T00:13:36.973Z,35.60
2018-06-04T00:16:06.718Z,38.33
2018-06-04T00:18:36.823Z,35.70
2018-06-04T00:21:05.481Z,39.60
2018-06-04T00:23:35.050Z,37.60
2018-06-04T00:26:07.042Z,38.53
2018-06-04T00:28:41.381Z,43.40
2018-06-04T00:31:10.365Z,38.70
2018-06-04T00:33:41.191Z,40.13
2018-06-04T00:36:10.303Z,39.73
2018-06-04T00:38:40.421Z,42.93
2018-06-04T00:41:10.541Z,47.17
2018-06-04T00:43:41.577Z,41.37
2018-06-04T00:46:10.962Z,45.40
2018-06-04T00:48:41.026Z,48.87
2018-06-04T00:51:10.887Z,44.37
2018-06-04T00:53:40.097Z,44.50
2018-06-04T00:56:19.489Z,45.83
2018-06-04T00:58:52.845Z,50.20
2018-06-04T01:01:22.606Z,48.23
2018-06-04T01:03:51.927Z,44.00
2018-06-04T01:06:21.069Z,46.97
2018-06-04T01:08:50.029Z,52.57
2018-06-04T01:11:20.493Z,49.63
2018-06-04T01:13:51.950Z,52.90
2018-06-04T01:16:21.943Z,47.60
2018-06-04T01:18:52.319Z,47.63
2018-06-04T01:21:21.694Z,55.87
2018-06-04T01:23:50.840Z,48.20
2018-06-04T01:26:19.982Z,54.00
2018-06-04T01:28:49.126Z,50.83
2018-06-04T01:31:18.642Z,62.73
2018-06-04T01:33:48.692Z,59.50
2018-06-04T01:36:19.392Z,60.23
2018-06-04T01:38:49.668Z,59.30
2018-06-04T01:41:18.763Z,61.10
2018-06-04T01:43:48.314Z,63.17
2018-06-04T01:46:17.543Z,61.20
2018-06-04T01:48:46.907Z,64.23
2018-06-04T01:51:16.652Z,61.20
2018-06-04T01:53:46.663Z,69.97
2018-06-04T01:56:16.210Z,71.13
2018-06-04T01:58:45.235Z,66.17
2018-06-04T02:01:14.428Z,60.70
2018-06-04T02:03:43.225Z,72.93
2018-06-04T02:06:12.433Z,68.47
2018-06-04T02:08:42.036Z,66.50
2018-06-04T02:11:11.379Z,70.27
2018-06-04T02:13:40.985Z,72.80
2018-06-04T02:16:10.729Z,72.00
2018-06-04T02:18:39.985Z,65.70
2018-06-04T02:21:08.912Z,69.47
2018-06-04T02:23:37.536Z,68.30
2018-06-04T02:26:06.414Z,72.40
2018-06-04T02:28:35.633Z,63.23
2018-06-04T02:31:04.590Z,70.57
2018-06-04T02:33:33.629Z,61.57
2018-06-04T02:36:02.862Z,66.00
2018-06-04T02:38:32.403Z,74.93
2018-06-04T02:41:01.972Z,72.53
2018-06-04T02:43:31.259Z,78.63
2018-06-04T02:48:35.609Z,72.50
2018-06-04T02:51:05.547Z,81.90
2018-06-04T02:53:37.284Z,80.20
2018-06-04T02:56:07.709Z,83.47
2018-06-04T02:58:36.928Z,86.53
2018-06-04T03:01:06.402Z,85.33
2018-06-04T03:03:36.043Z,88.27
2018-06-04T03:06:06.145Z,87.00
2018-06-04T03:08:35.693Z,88.77
2018-06-04T03:11:05.373Z,104.73
2018-06-04T03:57:17.777Z,109.10
2018-06-04T03:59:47.652Z,107.10
2018-06-04T04:02:17.540Z,112.83
2018-06-04T04:04:48.657Z,112.17
2018-06-04T04:07:17.741Z,96.60
2018-06-04T04:09:47.907Z,103.30
2018-06-04T04:12:17.666Z,102.55
2018-06-04T04:14:48.057Z,105.10
2018-06-04T04:17:17.819Z,104.40
2018-06-04T04:19:49.054Z,96.60
2018-06-04T04:22:18.939Z,103.17
2018-06-04T04:24:49.632Z,95.40
2018-06-04T04:27:19.286Z,96.13
2018-06-04T04:29:49.499Z,95.17
2018-06-04T04:32:18.651Z,91.53
2018-06-04T04:34:48.009Z,92.03
2018-06-04T04:37:17.350Z,103.15
2018-06-04T04:39:46.775Z,91.80
2018-06-04T04:42:16.225Z,93.67
2018-06-04T04:44:45.624Z,104.73
2018-06-04T04:47:14.722Z,94.65
2018-06-04T04:49:44.148Z,88.30
2018-06-04T04:52:13.269Z,91.80
2018-06-04T04:54:42.720Z,85.53
2018-06-04T04:57:12.224Z,96.23
2018-06-04T04:59:41.346Z,105.23
2018-06-04T05:02:11.254Z,97.57
2018-06-04T05:04:40.045Z,99.37
2018-06-04T05:07:09.000Z,100.53
2018-06-04T05:09:38.026Z,93.83
2018-06-04T05:12:06.860Z,98.87
2018-06-04T05:14:35.896Z,90.63
2018-06-04T05:17:05.848Z,96.90
2018-06-04T05:19:35.503Z,91.37
2018-06-04T05:22:04.757Z,103.83
2018-06-04T05:24:34.445Z,88.50
2018-06-04T05:27:03.594Z,103.20
2018-06-04T05:29:32.345Z,102.10
2018-06-04T05:32:00.828Z,98.20
2018-06-04T05:34:29.805Z,106.77
2018-06-04T05:36:58.262Z,97.47
2018-06-04T05:39:27.292Z,93.10
2018-06-04T05:41:57.498Z,103.50
2018-06-04T05:44:26.428Z,98.47
2018-06-04T05:46:55.176Z,96.37
2018-06-04T05:49:24.807Z,85.50
2018-06-04T05:51:53.633Z,99.03
2018-06-04T05:54:22.858Z,87.70
2018-06-04T05:56:53.860Z,86.45
2018-06-04T05:59:22.618Z,82.87
2018-06-04T06:01:51.502Z,82.47
2018-06-04T06:04:20.373Z,84.50
2018-06-04T06:06:49.367Z,83.37
2018-06-04T06:09:18.231Z,82.67
2018-06-04T06:11:46.752Z,77.85
2018-06-04T06:14:21.906Z,86.60
2018-06-04T06:16:50.208Z,84.80
2018-06-04T06:19:19.157Z,81.60
2018-06-04T06:21:47.572Z,76.60
2018-06-04T06:24:16.419Z,82.00
2018-06-04T06:26:47.672Z,78.60
2018-06-04T06:29:16.182Z,80.15
2018-06-04T06:31:44.801Z,83.50
2018-06-04T06:34:13.174Z,83.60
2018-06-04T06:36:41.845Z,78.60
2018-06-04T06:39:11.264Z,73.10
2018-06-04T06:41:39.630Z,65.85
2018-06-04T06:44:08.048Z,77.30
2018-06-04T06:46:36.716Z,76.80
2018-06-04T06:49:05.076Z,71.40
2018-06-04T06:51:33.235Z,73.73
2018-06-04T06:54:01.641Z,72.45
2018-06-04T06:56:30.569Z,74.50
2018-06-04T06:58:58.996Z,75.70
2018-06-04T07:01:27.144Z,75.00
2018-06-04T07:03:55.500Z,74.37
2018-06-04T07:06:23.939Z,85.00
2018-06-04T07:08:52.264Z,78.20
2018-06-04T07:11:20.640Z,84.75
2018-06-04T07:13:49.037Z,73.20
2018-06-04T07:16:17.389Z,79.60
2018-06-04T07:18:45.800Z,67.10
2018-06-04T07:21:14.168Z,80.20
2018-06-04T07:23:43.040Z,71.17
2018-06-04T07:26:11.378Z,88.07
2018-06-04T07:28:39.740Z,71.50
2018-06-04T07:31:08.112Z,65.63
2018-06-04T07:33:37.041Z,64.40
2018-06-04T07:36:10.593Z,67.33
2018-06-04T07:38:39.204Z,63.20
2018-06-04T07:41:07.558Z,65.70
2018-06-04T07:43:36.915Z,63.53
2018-06-04T07:46:05.272Z,53.80
2018-06-04T07:48:33.645Z,62.57
2018-06-04T07:51:02.401Z,67.60
2018-06-04T07:53:30.769Z,66.10
2018-06-04T07:55:59.165Z,61.20
2018-06-04T07:58:27.629Z,60.10
2018-06-04T08:00:56.008Z,56.10
2018-06-04T08:03:24.440Z,59.40
2018-06-04T08:05:52.838Z,58.10
2018-06-04T08:08:22.190Z,61.20
2018-06-04T08:10:51.233Z,66.97
2018-06-04T08:13:21.064Z,60.70
2018-06-04T08:15:50.076Z,61.20
2018-06-04T08:18:19.657Z,60.70
2018-06-04T08:20:48.477Z,61.20
2018-06-04T08:23:16.970Z,57.43
2018-06-04T08:25:45.464Z,65.00
2018-06-04T08:28:13.556Z,66.17
2018-06-04T08:30:42.094Z,64.97
2018-06-04T08:33:10.625Z,63.90
2018-06-04T08:35:39.499Z,55.80
2018-06-04T08:38:08.196Z,60.40
2018-06-04T08:40:36.610Z,57.80
2018-06-04T08:43:05.177Z,57.83
2018-06-04T08:45:34.012Z,53.77
2018-06-04T08:48:02.690Z,60.37
2018-06-04T08:50:30.892Z,55.40
2018-06-04T08:52:59.317Z,50.97
2018-06-04T08:55:27.758Z,50.63
2018-06-04T08:57:55.870Z,59.30
2018-06-04T09:00:24.970Z,48.20
2018-06-04T09:02:53.453Z,55.20
2018-06-04T09:05:21.963Z,51.20
2018-06-04T09:07:50.509Z,50.90
2018-06-04T09:10:19.349Z,48.50
2018-06-04T09:12:48.553Z,45.17
2018-06-04T09:15:17.393Z,47.90
2018-06-04T09:17:45.893Z,44.73
2018-06-04T09:20:14.289Z,47.87
2018-06-04T09:22:42.788Z,50.60
2018-06-04T09:25:11.040Z,45.60
2018-06-04T09:27:39.882Z,52.63
2018-06-04T09:30:08.311Z,47.53
2018-06-04T09:32:37.441Z,47.33
2018-06-04T09:35:07.281Z,44.20
2018-06-04T09:37:35.799Z,48.13
2018-06-04T09:40:04.542Z,43.73
2018-06-04T09:42:35.745Z,50.43
2018-06-04T09:45:05.405Z,47.13
2018-06-04T09:47:34.105Z,40.43
2018-06-04T09:50:02.643Z,43.57
2018-06-04T09:52:31.329Z,50.07
2018-06-04T09:55:01.698Z,47.43
2018-06-04T09:57:30.037Z,39.97
2018-06-04T09:59:58.555Z,45.97
2018-06-04T10:02:27.109Z,44.20
2018-06-04T10:04:55.592Z,43.13
2018-06-04T10:07:24.649Z,42.40
2018-06-04T10:09:54.445Z,43.77
2018-06-04T10:12:22.983Z,43.60
2018-06-04T10:14:51.600Z,43.83
2018-06-04T10:17:19.980Z,41.83
2018-06-04T10:19:48.360Z,43.57
2018-06-04T10:22:16.740Z,40.80
2018-06-04T10:24:45.160Z,43.47
2018-06-04T10:27:13.509Z,41.47
2018-06-04T10:29:41.872Z,47.73
2018-06-04T10:32:10.461Z,44.10
2018-06-04T10:34:38.830Z,45.83
2018-06-04T10:37:07.197Z,41.37
2018-06-04T10:39:35.829Z,39.03
2018-06-04T10:42:04.220Z,39.90
2018-06-04T10:49:28.169Z,36.70
2018-06-04T10:56:51.800Z,35.83
2018-06-04T10:59:20.333Z,31.70
2018-06-04T11:01:48.664Z,32.87
2018-06-04T11:04:17.023Z,35.87
2018-06-04T11:06:45.389Z,38.63
2018-06-04T11:28:55.098Z,36.03
2018-06-04T11:31:23.496Z,37.00
2018-06-04T11:33:51.884Z,40.33
2018-06-04T11:36:20.424Z,38.83
2018-06-04T11:38:48.803Z,43.13
2018-06-04T11:41:23.984Z,39.17
2018-06-04T11:43:52.392Z,35.80
2018-06-04T11:46:20.849Z,38.23
2018-06-04T11:48:49.241Z,39.67
2018-06-04T11:51:17.577Z,35.13
2018-06-04T11:53:45.960Z,38.50
2018-06-04T11:56:14.729Z,37.80
2018-06-04T11:58:43.247Z,37.63
2018-06-04T12:01:11.817Z,40.60
2018-06-04T12:03:43.884Z,41.57
2018-06-04T12:06:12.335Z,37.57
2018-06-04T12:08:44.469Z,35.50
2018-06-04T12:11:13.416Z,30.63
2018-06-04T12:13:41.760Z,34.50
2018-06-04T12:16:16.840Z,38.40
2018-06-04T12:18:45.244Z,33.43
2018-06-04T12:21:13.596Z,31.13
2018-06-04T12:23:42.008Z,29.53
2018-06-04T12:26:10.152Z,30.67
2018-06-04T12:28:38.508Z,28.03
2018-06-04T12:31:06.934Z,30.50
2018-06-04T12:33:35.303Z,34.10
2018-06-04T12:36:03.687Z,31.40
2018-06-04T12:38:32.041Z,29.37
2018-06-04T12:41:00.428Z,29.60
2018-06-04T12:43:28.819Z,31.87
2018-06-04T12:45:57.396Z,30.47
2018-06-04T12:48:25.744Z,31.00
2018-06-04T12:50:54.109Z,28.10
2018-06-04T12:53:22.492Z,24.13
2018-06-04T12:55:50.865Z,27.70
2018-06-04T12:58:19.312Z,29.70
2018-06-04T13:00:50.907Z,24.87
2018-06-04T13:03:19.484Z,27.27
2018-06-04T13:05:47.853Z,25.73
2018-06-04T13:08:16.241Z,29.40
2018-06-04T13:13:12.679Z,32.00
2018-06-04T13:15:41.068Z,28.93
2018-06-04T13:18:09.596Z,25.67
2018-06-04T13:20:38.016Z,25.17
2018-06-04T13:23:06.695Z,25.90
2018-06-04T13:25:34.788Z,22.70
2018-06-04T13:28:03.177Z,23.00
2018-06-04T13:30:31.557Z,20.47
2018-06-04T13:37:55.252Z,23.23
2018-06-04T13:40:24.053Z,21.80
2018-06-04T13:42:52.416Z,24.60
2018-06-04T13:45:21.269Z,29.73
2018-06-04T13:47:50.049Z,30.40
2018-06-04T13:50:19.619Z,27.77
2018-06-04T13:52:48.076Z,26.17
2018-06-04T13:55:16.576Z,27.77
2018-06-04T13:57:48.039Z,27.73
2018-06-04T14:00:16.450Z,26.37
2018-06-04T14:02:44.842Z,28.93
2018-06-04T14:05:13.212Z,28.27
2018-06-04T14:07:41.564Z,24.20
2018-06-04T14:12:37.261Z,23.87
2018-06-04T14:15:05.684Z,27.40
2018-06-04T14:17:34.059Z,27.65
2018-06-04T14:20:02.708Z,26.47
2018-06-04T14:22:31.429Z,30.27
2018-06-04T14:24:59.912Z,26.50
2018-06-04T14:27:28.540Z,30.13
2018-06-04T14:29:57.351Z,31.43
2018-06-04T14:32:26.937Z,28.47
2018-06-04T14:34:55.200Z,28.50
2018-06-04T14:37:23.958Z,31.57
2018-06-04T14:39:54.339Z,25.90
2018-06-04T14:42:24.532Z,26.27
2018-06-04T14:44:53.076Z,23.43
2018-06-04T14:47:22.212Z,23.23
2018-06-04T14:49:53.818Z,24.97
2018-06-04T14:52:23.940Z,24.70
2018-06-04T14:54:52.263Z,29.03
2018-06-04T14:57:20.776Z,27.30
2018-06-04T14:59:50.378Z,25.03
2018-06-04T15:02:19.421Z,25.93
2018-06-04T15:04:48.412Z,24.30
2018-06-04T15:07:17.343Z,24.57
2018-06-04T15:09:48.890Z,24.77
2018-06-04T15:12:21.073Z,22.70
2018-06-04T15:14:54.196Z,26.13
2018-06-04T15:17:22.781Z,25.00
2018-06-04T15:19:51.440Z,24.53
2018-06-04T15:22:20.073Z,25.40
2018-06-04T15:24:49.435Z,25.83
2018-06-04T15:27:19.444Z,28.00
2018-06-04T15:29:47.905Z,26.87
2018-06-04T15:32:16.390Z,26.80
2018-06-04T15:34:45.426Z,24.97
2018-06-04T15:37:14.073Z,26.60
2018-06-04T15:39:43.088Z,27.00
2018-06-04T15:42:11.592Z,27.50
2018-06-04T15:44:41.304Z,30.50
2018-06-04T15:47:09.786Z,30.20
2018-06-04T15:49:38.757Z,30.37
2018-06-04T15:52:10.671Z,30.23
2018-06-04T15:54:46.708Z,27.67
2018-06-04T15:57:17.197Z,28.77
2018-06-04T15:59:46.918Z,29.67
2018-06-04T16:02:17.595Z,28.13
2018-06-04T16:04:47.771Z,29.43
2018-06-04T16:07:16.834Z,31.70
2018-06-04T16:09:45.488Z,29.53
2018-06-04T16:12:16.076Z,30.67
2018-06-04T16:14:45.701Z,33.47
2018-06-04T16:17:16.226Z,34.63
2018-06-04T16:19:45.097Z,31.47
2018-06-04T16:22:14.826Z,30.60
2018-06-04T16:24:43.832Z,30.97
2018-06-04T16:27:12.460Z,31.93
2018-06-04T16:29:42.208Z,29.63
2018-06-04T16:32:11.472Z,30.80
2018-06-04T16:34:41.551Z,27.90
2018-06-04T16:37:12.291Z,27.87
2018-06-04T16:39:42.243Z,29.57
2018-06-04T16:42:11.230Z,28.40
2018-06-04T16:44:42.772Z,28.77
2018-06-04T16:47:14.467Z,29.77
2018-06-04T16:49:44.788Z,30.10
2018-06-04T16:52:14.026Z,30.50
2018-06-04T16:54:42.619Z,30.53
2018-06-04T16:57:17.664Z,32.70
2018-06-04T16:59:51.079Z,30.70
2018-06-04T17:02:19.605Z,29.83
2018-06-04T17:04:48.396Z,30.17
2018-06-04T17:07:19.339Z,29.23
2018-06-04T17:09:49.160Z,28.33
2018-06-04T17:12:18.213Z,32.43
2018-06-04T17:14:47.461Z,29.13
2018-06-04T17:17:17.169Z,28.83
2018-06-04T17:19:46.402Z,26.70
2018-06-04T17:22:15.932Z,28.93
2018-06-04T17:24:47.460Z,32.97
2018-06-04T17:27:17.171Z,30.50
2018-06-04T17:29:51.860Z,32.33
2018-06-04T17:32:21.878Z,32.37
2018-06-04T17:34:51.113Z,30.47
2018-06-04T17:37:23.156Z,29.83
2018-06-04T17:39:53.036Z,30.27
2018-06-04T17:42:23.554Z,30.83
2018-06-04T17:44:54.507Z,27.20
2018-06-04T17:47:24.363Z,28.57
2018-06-04T17:49:53.892Z,28.00
2018-06-04T17:52:23.197Z,27.43
2018-06-04T17:54:54.899Z,25.30
2018-06-04T17:57:23.829Z,26.23
2018-06-04T17:59:55.233Z,22.97
2018-06-04T18:02:24.727Z,26.87
2018-06-04T18:04:53.897Z,30.23
2018-06-04T18:07:23.123Z,26.23
2018-06-04T18:09:53.359Z,25.10
2018-06-04T18:12:22.012Z,26.07
2018-06-04T18:14:52.395Z,30.13
2018-06-04T18:17:24.710Z,24.77
2018-06-04T18:19:53.376Z,31.70
2018-06-04T18:22:27.019Z,24.73
2018-06-04T18:24:56.911Z,28.10
2018-06-04T18:27:26.568Z,23.50
2018-06-04T18:29:56.600Z,23.90
2018-06-04T18:32:26.988Z,26.80
2018-06-04T18:34:58.033Z,22.70
2018-06-04T18:37:29.002Z,21.00
2018-06-04T18:39:57.470Z,26.10
2018-06-04T18:42:27.812Z,21.73
2018-06-04T18:44:59.960Z,27.80
2018-06-04T18:47:33.051Z,21.10
2018-06-04T18:50:04.644Z,21.30
2018-06-04T18:52:37.641Z,20.90
2018-06-04T18:55:09.336Z,19.80
2018-06-04T18:57:38.625Z,19.03
2018-06-04T19:00:07.967Z,20.60
2018-06-04T19:02:38.262Z,20.00
2018-06-04T19:05:12.740Z,22.67
2018-06-04T19:07:42.995Z,16.07
2018-06-04T19:10:14.078Z,27.03
2018-06-04T19:12:45.652Z,19.40
2018-06-04T19:15:16.240Z,19.93
2018-06-04T19:17:48.148Z,18.60
2018-06-04T19:20:16.624Z,28.90
2018-06-04T19:22:48.947Z,31.20
2018-06-04T19:25:17.488Z,32.67
2018-06-04T19:27:46.081Z,41.30
2018-06-04T19:30:17.436Z,38.30
2018-06-04T19:32:46.334Z,38.00
2018-06-04T19:35:15.543Z,43.30
2018-06-04T19:37:44.380Z,45.97
2018-06-04T19:40:13.416Z,37.13
2018-06-04T19:42:42.265Z,46.57
2018-06-04T19:45:11.121Z,41.50
2018-06-04T19:47:40.149Z,42.07
2018-06-04T19:50:09.118Z,42.60
2018-06-04T19:52:38.390Z,37.63
2018-06-04T19:55:07.708Z,45.90
2018-06-04T19:57:36.941Z,46.80
2018-06-04T20:00:06.160Z,41.70
2018-06-04T20:02:35.171Z,43.20
2018-06-04T20:05:04.226Z,45.30
2018-06-04T20:07:32.952Z,43.50
2018-06-04T20:10:01.488Z,41.27
2018-06-04T20:12:30.318Z,40.77
2018-06-04T20:14:58.921Z,47.07
2018-06-04T20:17:27.574Z,47.17
2018-06-04T20:19:56.698Z,44.80
2018-06-04T20:22:25.535Z,43.03
2018-06-04T20:24:54.250Z,45.37
2018-06-04T20:27:23.015Z,41.27
2018-06-04T20:29:52.198Z,41.67
2018-06-04T20:32:20.830Z,42.37
2018-06-04T20:34:49.298Z,37.10
2018-06-04T20:37:17.861Z,40.83
2018-06-04T20:39:46.587Z,37.97
2018-06-04T20:42:15.166Z,39.53
2018-06-04T20:44:43.915Z,38.43
2018-06-04T20:47:12.636Z,39.10
2018-06-04T20:49:41.265Z,39.43
2018-06-04T20:52:10.070Z,44.90
2018-06-04T20:54:38.716Z,39.83
2018-06-04T20:57:07.064Z,49.90
2018-06-04T20:59:35.509Z,38.47
2018-06-04T21:02:04.209Z,41.80
2018-06-04T21:04:32.906Z,43.20
2018-06-04T21:07:01.457Z,42.13
2018-06-04T21:09:30.395Z,45.80
2018-06-04T21:11:58.655Z,40.53
2018-06-04T21:14:27.047Z,40.40
2018-06-04T21:16:55.662Z,46.30
2018-06-04T21:19:24.095Z,47.90
2018-06-04T21:21:52.489Z,43.17
2018-06-04T21:24:21.121Z,49.40
2018-06-04T21:26:49.724Z,43.50
2018-06-04T21:29:18.469Z,49.50
2018-06-04T21:31:47.173Z,48.83
2018-06-04T21:34:16.172Z,46.33
2018-06-04T21:36:44.926Z,46.93
2018-06-04T21:39:42.723Z,51.50
2018-06-04T21:42:12.332Z,52.07
2018-06-04T22:27:42.137Z,53.03
2018-06-04T22:30:18.656Z,52.33
2018-06-04T22:32:47.617Z,53.83
2018-06-04T22:35:16.563Z,45.70
2018-06-04T22:37:45.801Z,47.10
2018-06-04T22:40:15.884Z,51.97
2018-06-04T22:42:44.813Z,52.20
2018-06-04T22:45:13.928Z,50.60
2018-06-04T22:47:43.339Z,45.67
2018-06-04T22:50:13.319Z,59.73
2018-06-04T22:52:42.358Z,48.67
2018-06-04T22:55:10.825Z,52.90
2018-06-04T22:57:39.905Z,50.25
2018-06-04T23:00:08.552Z,50.10
2018-06-04T23:02:37.402Z,48.47
2018-06-04T23:05:06.594Z,54.40
2018-06-04T23:07:35.512Z,52.37
2018-06-04T23:10:04.461Z,47.00
2018-06-04T23:12:33.571Z,49.40
2018-06-04T23:15:02.345Z,45.83
2018-06-04T23:17:31.526Z,45.85
2018-06-04T23:20:00.550Z,46.73
2018-06-04T23:22:29.650Z,46.37
2018-06-04T23:24:58.749Z,42.80
2018-06-04T23:27:27.837Z,46.80
2018-06-04T23:29:56.929Z,50.20
2018-06-04T23:32:26.162Z,50.47
2018-06-04T23:34:55.446Z,45.50
2018-06-04T23:37:24.604Z,42.70
2018-06-04T23:39:53.551Z,45.40
2018-06-04T23:42:22.157Z,42.70
2018-06-04T23:44:50.793Z,40.17
2018-06-04T23:47:19.762Z,37.47
2018-06-04T23:49:48.949Z,39.80
2018-06-04T23:52:17.885Z,30.40
2018-06-04T23:54:47.280Z,31.60
2018-06-04T23:57:17.018Z,33.03
2018-06-04T23:59:45.900Z,30.40
